sensor_id;sensor_type;location;lat;lon;timestamp;P1;durP1;ratioP1;P2;durP2;ratioP2
10335;SDS011;5213;53.548;9.930;2023-08-17T00:01:51;5.82;;;1.95;;
10335;SDS011;5213;53.548;9.930;2023-08-17T00:04:17;4.80;;;1.73;;
10335;SDS011;5213;53.548;9.930;2023-08-17T00:06:43;3.60;;;1.75;;
10335;SDS011;5213;53.548;9.930;2023-08-17T00:09:10;8.45;;;2.15;;
10335;SDS011;5213;53.548;9.930;2023-08-17T00:11:37;7.25;;;2.00;;
10335;SDS011;5213;53.548;9.930;2023-08-17T00:14:03;4.65;;;2.10;;
10335;SDS011;5213;53.548;9.930;2023-08-17T00:16:29;2.90;;;1.70;;
10335;SDS011;5213;53.548;9.930;2023-08-17T00:18:55;4.30;;;1.80;;
10335;SDS011;5213;53.548;9.930;2023-08-17T00:21:22;4.35;;;2.00;;
10335;SDS011;5213;53.548;9.930;2023-08-17T00:23:48;3.53;;;2.03;;
10335;SDS011;5213;53.548;9.930;2023-08-17T00:26:14;4.63;;;2.13;;
10335;SDS011;5213;53.548;9.930;2023-08-17T00:28:40;4.32;;;2.03;;
10335;SDS011;5213;53.548;9.930;2023-08-17T00:31:06;4.85;;;2.20;;
10335;SDS011;5213;53.548;9.930;2023-08-17T00:33:32;3.33;;;2.10;;
10335;SDS011;5213;53.548;9.930;2023-08-17T00:35:58;2.53;;;1.70;;
10335;SDS011;5213;53.548;9.930;2023-08-17T00:38:24;4.00;;;2.17;;
10335;SDS011;5213;53.548;9.930;2023-08-17T00:40:50;4.72;;;2.28;;
10335;SDS011;5213;53.548;9.930;2023-08-17T00:43:16;3.95;;;2.17;;
10335;SDS011;5213;53.548;9.930;2023-08-17T00:45:42;6.60;;;2.28;;
10335;SDS011;5213;53.548;9.930;2023-08-17T00:48:10;3.22;;;2.10;;
10335;SDS011;5213;53.548;9.930;2023-08-17T00:50:36;5.68;;;1.95;;
10335;SDS011;5213;53.548;9.930;2023-08-17T00:53:03;6.40;;;2.45;;
10335;SDS011;5213;53.548;9.930;2023-08-17T00:55:29;5.80;;;2.00;;
10335;SDS011;5213;53.548;9.930;2023-08-17T00:57:56;3.80;;;2.05;;
10335;SDS011;5213;53.548;9.930;2023-08-17T01:00:23;4.22;;;2.00;;
10335;SDS011;5213;53.548;9.930;2023-08-17T01:02:49;3.20;;;2.17;;
10335;SDS011;5213;53.548;9.930;2023-08-17T01:05:16;3.00;;;2.20;;
10335;SDS011;5213;53.548;9.930;2023-08-17T01:07:42;6.50;;;2.15;;
10335;SDS011;5213;53.548;9.930;2023-08-17T01:10:08;5.03;;;2.20;;
10335;SDS011;5213;53.548;9.930;2023-08-17T01:12:42;4.07;;;2.00;;
10335;SDS011;5213;53.548;9.930;2023-08-17T01:15:16;4.47;;;2.30;;
10335;SDS011;5213;53.548;9.930;2023-08-17T01:20:12;3.65;;;2.25;;
10335;SDS011;5213;53.548;9.930;2023-08-17T01:22:40;7.38;;;2.25;;
10335;SDS011;5213;53.548;9.930;2023-08-17T01:25:10;3.90;;;2.10;;
10335;SDS011;5213;53.548;9.930;2023-08-17T01:27:39;2.95;;;2.22;;
10335;SDS011;5213;53.548;9.930;2023-08-17T01:30:06;3.63;;;2.35;;
10335;SDS011;5213;53.548;9.930;2023-08-17T01:32:52;3.97;;;2.00;;
10335;SDS011;5213;53.548;9.930;2023-08-17T01:35:26;2.72;;;2.40;;
10335;SDS011;5213;53.548;9.930;2023-08-17T01:37:56;4.45;;;2.00;;
10335;SDS011;5213;53.548;9.930;2023-08-17T01:40:23;4.32;;;2.30;;
10335;SDS011;5213;53.548;9.930;2023-08-17T01:42:50;5.90;;;2.35;;
10335;SDS011;5213;53.548;9.930;2023-08-17T01:45:16;8.25;;;1.92;;
10335;SDS011;5213;53.548;9.930;2023-08-17T01:47:42;2.13;;;1.90;;
10335;SDS011;5213;53.548;9.930;2023-08-17T01:50:08;4.82;;;2.13;;
10335;SDS011;5213;53.548;9.930;2023-08-17T01:52:34;3.50;;;2.20;;
10335;SDS011;5213;53.548;9.930;2023-08-17T01:55:01;2.83;;;2.05;;
10335;SDS011;5213;53.548;9.930;2023-08-17T01:57:27;3.92;;;2.03;;
10335;SDS011;5213;53.548;9.930;2023-08-17T01:59:53;3.75;;;2.40;;
10335;SDS011;5213;53.548;9.930;2023-08-17T02:02:18;4.43;;;1.90;;
10335;SDS011;5213;53.548;9.930;2023-08-17T02:04:46;3.42;;;2.00;;
10335;SDS011;5213;53.548;9.930;2023-08-17T02:07:12;2.30;;;1.88;;
10335;SDS011;5213;53.548;9.930;2023-08-17T02:09:38;3.50;;;2.05;;
10335;SDS011;5213;53.548;9.930;2023-08-17T02:12:04;6.00;;;2.22;;
10335;SDS011;5213;53.548;9.930;2023-08-17T02:14:30;4.90;;;2.30;;
10335;SDS011;5213;53.548;9.930;2023-08-17T02:16:56;4.00;;;2.00;;
10335;SDS011;5213;53.548;9.930;2023-08-17T02:19:22;3.38;;;2.33;;
10335;SDS011;5213;53.548;9.930;2023-08-17T02:21:48;2.88;;;2.25;;
10335;SDS011;5213;53.548;9.930;2023-08-17T02:24:14;4.05;;;1.88;;
10335;SDS011;5213;53.548;9.930;2023-08-17T02:26:40;3.28;;;1.90;;
10335;SDS011;5213;53.548;9.930;2023-08-17T02:29:06;8.93;;;2.33;;
10335;SDS011;5213;53.548;9.930;2023-08-17T02:31:32;4.80;;;2.15;;
10335;SDS011;5213;53.548;9.930;2023-08-17T02:33:58;3.88;;;2.35;;
10335;SDS011;5213;53.548;9.930;2023-08-17T02:36:29;3.38;;;2.20;;
10335;SDS011;5213;53.548;9.930;2023-08-17T02:38:55;2.55;;;2.13;;
10335;SDS011;5213;53.548;9.930;2023-08-17T02:41:21;4.45;;;2.40;;
10335;SDS011;5213;53.548;9.930;2023-08-17T02:43:47;5.00;;;2.20;;
10335;SDS011;5213;53.548;9.930;2023-08-17T02:46:13;4.03;;;2.03;;
10335;SDS011;5213;53.548;9.930;2023-08-17T02:48:40;4.47;;;2.20;;
10335;SDS011;5213;53.548;9.930;2023-08-17T02:51:06;5.18;;;2.42;;
10335;SDS011;5213;53.548;9.930;2023-08-17T02:53:32;4.57;;;2.10;;
10335;SDS011;5213;53.548;9.930;2023-08-17T02:55:58;3.70;;;2.40;;
10335;SDS011;5213;53.548;9.930;2023-08-17T02:58:24;3.70;;;1.90;;
10335;SDS011;5213;53.548;9.930;2023-08-17T03:00:53;7.78;;;2.30;;
10335;SDS011;5213;53.548;9.930;2023-08-17T03:03:19;4.47;;;2.13;;
10335;SDS011;5213;53.548;9.930;2023-08-17T03:05:45;2.35;;;2.00;;
10335;SDS011;5213;53.548;9.930;2023-08-17T03:08:11;2.35;;;2.10;;
10335;SDS011;5213;53.548;9.930;2023-08-17T03:10:37;3.80;;;2.05;;
10335;SDS011;5213;53.548;9.930;2023-08-17T03:13:03;2.55;;;2.30;;
10335;SDS011;5213;53.548;9.930;2023-08-17T03:15:29;3.60;;;2.20;;
10335;SDS011;5213;53.548;9.930;2023-08-17T03:17:55;4.32;;;2.15;;
10335;SDS011;5213;53.548;9.930;2023-08-17T03:20:21;4.13;;;2.20;;
10335;SDS011;5213;53.548;9.930;2023-08-17T03:22:47;2.67;;;2.00;;
10335;SDS011;5213;53.548;9.930;2023-08-17T03:25:13;6.70;;;2.17;;
10335;SDS011;5213;53.548;9.930;2023-08-17T03:27:39;4.53;;;2.20;;
10335;SDS011;5213;53.548;9.930;2023-08-17T03:30:05;3.25;;;2.08;;
10335;SDS011;5213;53.548;9.930;2023-08-17T03:32:31;3.40;;;1.80;;
10335;SDS011;5213;53.548;9.930;2023-08-17T03:34:57;3.38;;;1.98;;
10335;SDS011;5213;53.548;9.930;2023-08-17T03:37:23;3.70;;;2.10;;
10335;SDS011;5213;53.548;9.930;2023-08-17T03:39:49;4.05;;;1.90;;
10335;SDS011;5213;53.548;9.930;2023-08-17T03:42:15;3.80;;;2.45;;
10335;SDS011;5213;53.548;9.930;2023-08-17T03:44:41;4.32;;;2.42;;
10335;SDS011;5213;53.548;9.930;2023-08-17T03:47:07;4.15;;;2.10;;
10335;SDS011;5213;53.548;9.930;2023-08-17T03:49:33;2.45;;;1.90;;
10335;SDS011;5213;53.548;9.930;2023-08-17T03:51:59;2.90;;;1.80;;
10335;SDS011;5213;53.548;9.930;2023-08-17T03:54:25;5.53;;;2.25;;
10335;SDS011;5213;53.548;9.930;2023-08-17T03:56:51;2.50;;;1.70;;
10335;SDS011;5213;53.548;9.930;2023-08-17T03:59:17;2.45;;;2.20;;
10335;SDS011;5213;53.548;9.930;2023-08-17T04:01:43;3.22;;;1.95;;
10335;SDS011;5213;53.548;9.930;2023-08-17T04:04:09;2.53;;;2.03;;
10335;SDS011;5213;53.548;9.930;2023-08-17T04:06:35;5.07;;;2.15;;
10335;SDS011;5213;53.548;9.930;2023-08-17T04:09:04;3.42;;;1.90;;
10335;SDS011;5213;53.548;9.930;2023-08-17T04:11:30;3.22;;;2.03;;
10335;SDS011;5213;53.548;9.930;2023-08-17T04:13:56;2.55;;;2.10;;
10335;SDS011;5213;53.548;9.930;2023-08-17T04:16:22;2.80;;;1.80;;
10335;SDS011;5213;53.548;9.930;2023-08-17T04:18:48;2.35;;;1.90;;
10335;SDS011;5213;53.548;9.930;2023-08-17T04:21:14;4.82;;;2.10;;
10335;SDS011;5213;53.548;9.930;2023-08-17T04:23:40;4.13;;;2.00;;
10335;SDS011;5213;53.548;9.930;2023-08-17T04:26:06;3.65;;;2.13;;
10335;SDS011;5213;53.548;9.930;2023-08-17T04:28:32;4.10;;;2.17;;
10335;SDS011;5213;53.548;9.930;2023-08-17T04:30:58;2.33;;;1.98;;
10335;SDS011;5213;53.548;9.930;2023-08-17T04:33:24;3.70;;;2.35;;
10335;SDS011;5213;53.548;9.930;2023-08-17T04:35:50;2.85;;;2.00;;
10335;SDS011;5213;53.548;9.930;2023-08-17T04:38:16;2.40;;;2.13;;
10335;SDS011;5213;53.548;9.930;2023-08-17T04:40:42;4.95;;;2.00;;
10335;SDS011;5213;53.548;9.930;2023-08-17T04:43:09;3.53;;;2.10;;
10335;SDS011;5213;53.548;9.930;2023-08-17T04:45:35;2.72;;;2.25;;
10335;SDS011;5213;53.548;9.930;2023-08-17T04:48:01;4.07;;;2.33;;
10335;SDS011;5213;53.548;9.930;2023-08-17T04:50:27;4.90;;;2.30;;
10335;SDS011;5213;53.548;9.930;2023-08-17T04:52:53;4.32;;;2.38;;
10335;SDS011;5213;53.548;9.930;2023-08-17T04:55:19;6.30;;;2.15;;
10335;SDS011;5213;53.548;9.930;2023-08-17T04:57:45;5.25;;;2.20;;
10335;SDS011;5213;53.548;9.930;2023-08-17T05:00:11;4.65;;;2.40;;
10335;SDS011;5213;53.548;9.930;2023-08-17T05:02:37;6.13;;;2.63;;
10335;SDS011;5213;53.548;9.930;2023-08-17T05:05:05;3.65;;;2.60;;
10335;SDS011;5213;53.548;9.930;2023-08-17T05:07:31;4.35;;;2.10;;
10335;SDS011;5213;53.548;9.930;2023-08-17T05:09:57;3.58;;;2.45;;
10335;SDS011;5213;53.548;9.930;2023-08-17T05:12:23;4.13;;;2.67;;
10335;SDS011;5213;53.548;9.930;2023-08-17T05:14:49;3.88;;;2.45;;
10335;SDS011;5213;53.548;9.930;2023-08-17T05:17:15;5.28;;;2.65;;
10335;SDS011;5213;53.548;9.930;2023-08-17T05:19:42;2.78;;;2.58;;
10335;SDS011;5213;53.548;9.930;2023-08-17T05:22:10;3.85;;;2.53;;
10335;SDS011;5213;53.548;9.930;2023-08-17T05:24:36;5.00;;;2.58;;
10335;SDS011;5213;53.548;9.930;2023-08-17T05:27:02;3.50;;;2.88;;
10335;SDS011;5213;53.548;9.930;2023-08-17T05:29:28;3.42;;;2.92;;
10335;SDS011;5213;53.548;9.930;2023-08-17T05:31:54;4.18;;;2.67;;
10335;SDS011;5213;53.548;9.930;2023-08-17T05:34:20;6.05;;;2.85;;
10335;SDS011;5213;53.548;9.930;2023-08-17T05:36:46;6.32;;;2.60;;
10335;SDS011;5213;53.548;9.930;2023-08-17T05:39:12;5.65;;;2.85;;
10335;SDS011;5213;53.548;9.930;2023-08-17T05:41:38;6.00;;;2.90;;
10335;SDS011;5213;53.548;9.930;2023-08-17T05:44:04;5.38;;;2.90;;
10335;SDS011;5213;53.548;9.930;2023-08-17T05:46:32;6.20;;;3.00;;
10335;SDS011;5213;53.548;9.930;2023-08-17T05:48:58;3.80;;;2.80;;
10335;SDS011;5213;53.548;9.930;2023-08-17T05:51:24;6.18;;;3.05;;
10335;SDS011;5213;53.548;9.930;2023-08-17T05:53:50;5.88;;;2.88;;
10335;SDS011;5213;53.548;9.930;2023-08-17T05:56:16;7.05;;;3.38;;
10335;SDS011;5213;53.548;9.930;2023-08-17T05:58:42;6.35;;;3.22;;
10335;SDS011;5213;53.548;9.930;2023-08-17T06:01:08;10.13;;;3.60;;
10335;SDS011;5213;53.548;9.930;2023-08-17T06:03:35;8.88;;;3.80;;
10335;SDS011;5213;53.548;9.930;2023-08-17T06:06:02;10.65;;;3.90;;
10335;SDS011;5213;53.548;9.930;2023-08-17T06:08:28;8.55;;;4.40;;
10335;SDS011;5213;53.548;9.930;2023-08-17T06:10:54;8.43;;;4.50;;
10335;SDS011;5213;53.548;9.930;2023-08-17T06:13:20;8.82;;;5.13;;
10335;SDS011;5213;53.548;9.930;2023-08-17T06:15:46;8.48;;;4.75;;
10335;SDS011;5213;53.548;9.930;2023-08-17T06:18:11;16.73;;;5.20;;
10335;SDS011;5213;53.548;9.930;2023-08-17T06:20:37;12.60;;;5.07;;
10335;SDS011;5213;53.548;9.930;2023-08-17T06:23:03;10.27;;;4.72;;
10335;SDS011;5213;53.548;9.930;2023-08-17T06:25:29;10.93;;;4.85;;
10335;SDS011;5213;53.548;9.930;2023-08-17T06:27:54;10.18;;;5.13;;
10335;SDS011;5213;53.548;9.930;2023-08-17T06:30:20;8.63;;;4.90;;
10335;SDS011;5213;53.548;9.930;2023-08-17T06:32:46;10.98;;;5.63;;
10335;SDS011;5213;53.548;9.930;2023-08-17T06:35:12;7.93;;;5.60;;
10335;SDS011;5213;53.548;9.930;2023-08-17T06:37:37;10.25;;;5.65;;
10335;SDS011;5213;53.548;9.930;2023-08-17T06:40:03;11.00;;;6.00;;
10335;SDS011;5213;53.548;9.930;2023-08-17T06:42:34;14.10;;;6.05;;
10335;SDS011;5213;53.548;9.930;2023-08-17T06:44:59;10.50;;;6.68;;
10335;SDS011;5213;53.548;9.930;2023-08-17T06:47:25;11.20;;;6.13;;
10335;SDS011;5213;53.548;9.930;2023-08-17T06:49:51;10.68;;;6.03;;
10335;SDS011;5213;53.548;9.930;2023-08-17T06:52:16;11.68;;;6.30;;
10335;SDS011;5213;53.548;9.930;2023-08-17T06:54:42;9.15;;;6.80;;
10335;SDS011;5213;53.548;9.930;2023-08-17T06:57:08;14.00;;;6.30;;
10335;SDS011;5213;53.548;9.930;2023-08-17T06:59:33;12.60;;;6.80;;
10335;SDS011;5213;53.548;9.930;2023-08-17T07:02:00;9.63;;;6.35;;
10335;SDS011;5213;53.548;9.930;2023-08-17T07:04:25;10.88;;;6.43;;
10335;SDS011;5213;53.548;9.930;2023-08-17T07:06:51;10.73;;;6.60;;
10335;SDS011;5213;53.548;9.930;2023-08-17T07:09:17;12.45;;;6.70;;
10335;SDS011;5213;53.548;9.930;2023-08-17T07:11:43;9.00;;;6.25;;
10335;SDS011;5213;53.548;9.930;2023-08-17T07:14:09;9.57;;;6.53;;
10335;SDS011;5213;53.548;9.930;2023-08-17T07:16:35;11.45;;;6.35;;
10335;SDS011;5213;53.548;9.930;2023-08-17T07:19:00;8.13;;;6.35;;
10335;SDS011;5213;53.548;9.930;2023-08-17T07:21:27;14.25;;;6.80;;
10335;SDS011;5213;53.548;9.930;2023-08-17T07:23:53;6.18;;;5.50;;
10335;SDS011;5213;53.548;9.930;2023-08-17T07:26:20;8.93;;;5.45;;
10335;SDS011;5213;53.548;9.930;2023-08-17T07:28:46;9.35;;;5.53;;
10335;SDS011;5213;53.548;9.930;2023-08-17T07:31:12;10.73;;;5.80;;
10335;SDS011;5213;53.548;9.930;2023-08-17T07:33:38;10.82;;;5.88;;
10335;SDS011;5213;53.548;9.930;2023-08-17T07:36:04;11.55;;;6.28;;
10335;SDS011;5213;53.548;9.930;2023-08-17T07:38:30;9.57;;;5.95;;
10335;SDS011;5213;53.548;9.930;2023-08-17T07:40:56;8.65;;;5.55;;
10335;SDS011;5213;53.548;9.930;2023-08-17T07:43:21;8.00;;;4.82;;
10335;SDS011;5213;53.548;9.930;2023-08-17T07:45:56;6.43;;;5.10;;
10335;SDS011;5213;53.548;9.930;2023-08-17T07:48:22;5.25;;;4.75;;
10335;SDS011;5213;53.548;9.930;2023-08-17T07:50:48;6.55;;;4.60;;
10335;SDS011;5213;53.548;9.930;2023-08-17T07:53:18;6.63;;;4.78;;
10335;SDS011;5213;53.548;9.930;2023-08-17T07:55:44;5.85;;;4.20;;
10335;SDS011;5213;53.548;9.930;2023-08-17T07:58:10;5.85;;;3.92;;
10335;SDS011;5213;53.548;9.930;2023-08-17T08:00:35;3.88;;;3.55;;
10335;SDS011;5213;53.548;9.930;2023-08-17T08:03:01;6.10;;;3.95;;
10335;SDS011;5213;53.548;9.930;2023-08-17T08:05:27;5.15;;;4.03;;
10335;SDS011;5213;53.548;9.930;2023-08-17T08:07:52;5.60;;;4.18;;
10335;SDS011;5213;53.548;9.930;2023-08-17T08:10:18;6.53;;;4.55;;
10335;SDS011;5213;53.548;9.930;2023-08-17T08:12:44;4.35;;;3.95;;
10335;SDS011;5213;53.548;9.930;2023-08-17T08:15:10;5.57;;;4.55;;
10335;SDS011;5213;53.548;9.930;2023-08-17T08:17:35;7.20;;;4.32;;
10335;SDS011;5213;53.548;9.930;2023-08-17T08:20:02;6.32;;;4.50;;
10335;SDS011;5213;53.548;9.930;2023-08-17T08:22:28;8.10;;;4.80;;
10335;SDS011;5213;53.548;9.930;2023-08-17T08:24:53;5.90;;;4.60;;
10335;SDS011;5213;53.548;9.930;2023-08-17T08:27:19;7.22;;;5.07;;
10335;SDS011;5213;53.548;9.930;2023-08-17T08:29:44;6.63;;;4.63;;
10335;SDS011;5213;53.548;9.930;2023-08-17T08:32:10;5.55;;;4.63;;
10335;SDS011;5213;53.548;9.930;2023-08-17T08:34:36;5.90;;;4.30;;
10335;SDS011;5213;53.548;9.930;2023-08-17T08:37:01;7.57;;;4.63;;
10335;SDS011;5213;53.548;9.930;2023-08-17T08:39:27;8.25;;;5.40;;
10335;SDS011;5213;53.548;9.930;2023-08-17T08:41:53;6.50;;;4.78;;
10335;SDS011;5213;53.548;9.930;2023-08-17T08:44:19;4.57;;;4.10;;
10335;SDS011;5213;53.548;9.930;2023-08-17T08:46:45;3.25;;;2.92;;
10335;SDS011;5213;53.548;9.930;2023-08-17T08:49:11;4.05;;;3.42;;
10335;SDS011;5213;53.548;9.930;2023-08-17T08:51:41;3.55;;;3.15;;
10335;SDS011;5213;53.548;9.930;2023-08-17T08:54:11;4.28;;;3.03;;
10335;SDS011;5213;53.548;9.930;2023-08-17T08:56:38;3.00;;;2.40;;
10335;SDS011;5213;53.548;9.930;2023-08-17T08:59:07;3.00;;;2.80;;
10335;SDS011;5213;53.548;9.930;2023-08-17T09:01:34;6.90;;;2.97;;
10335;SDS011;5213;53.548;9.930;2023-08-17T09:04:00;4.43;;;2.75;;
10335;SDS011;5213;53.548;9.930;2023-08-17T09:06:26;4.38;;;2.70;;
10335;SDS011;5213;53.548;9.930;2023-08-17T09:08:54;3.25;;;2.92;;
10335;SDS011;5213;53.548;9.930;2023-08-17T09:11:21;3.88;;;3.10;;
10335;SDS011;5213;53.548;9.930;2023-08-17T09:13:47;3.10;;;2.80;;
10335;SDS011;5213;53.548;9.930;2023-08-17T09:16:13;3.15;;;2.80;;
10335;SDS011;5213;53.548;9.930;2023-08-17T09:18:38;4.68;;;2.72;;
10335;SDS011;5213;53.548;9.930;2023-08-17T09:21:04;4.13;;;3.20;;
10335;SDS011;5213;53.548;9.930;2023-08-17T09:23:30;4.13;;;3.28;;
10335;SDS011;5213;53.548;9.930;2023-08-17T09:25:56;4.72;;;3.05;;
10335;SDS011;5213;53.548;9.930;2023-08-17T09:28:23;3.72;;;3.42;;
10335;SDS011;5213;53.548;9.930;2023-08-17T09:33:18;4.85;;;3.20;;
10335;SDS011;5213;53.548;9.930;2023-08-17T09:35:48;3.42;;;3.13;;
10335;SDS011;5213;53.548;9.930;2023-08-17T09:38:14;3.80;;;3.50;;
10335;SDS011;5213;53.548;9.930;2023-08-17T09:40:40;3.10;;;2.80;;
10335;SDS011;5213;53.548;9.930;2023-08-17T09:43:05;3.35;;;3.08;;
10335;SDS011;5213;53.548;9.930;2023-08-17T09:45:31;3.22;;;2.88;;
10335;SDS011;5213;53.548;9.930;2023-08-17T09:48:00;2.90;;;2.58;;
10335;SDS011;5213;53.548;9.930;2023-08-17T09:50:26;2.50;;;2.30;;
10335;SDS011;5213;53.548;9.930;2023-08-17T09:52:55;3.25;;;2.60;;
10335;SDS011;5213;53.548;9.930;2023-08-17T09:55:22;2.20;;;2.10;;
10335;SDS011;5213;53.548;9.930;2023-08-17T09:57:49;3.13;;;2.50;;
10335;SDS011;5213;53.548;9.930;2023-08-17T10:00:15;3.20;;;2.13;;
10335;SDS011;5213;53.548;9.930;2023-08-17T10:02:42;2.60;;;2.10;;
10335;SDS011;5213;53.548;9.930;2023-08-17T10:05:11;2.90;;;2.40;;
10335;SDS011;5213;53.548;9.930;2023-08-17T10:07:38;2.38;;;2.17;;
10335;SDS011;5213;53.548;9.930;2023-08-17T10:10:06;2.85;;;2.65;;
10335;SDS011;5213;53.548;9.930;2023-08-17T10:12:37;2.97;;;2.67;;
10335;SDS011;5213;53.548;9.930;2023-08-17T10:15:10;2.65;;;2.45;;
10335;SDS011;5213;53.548;9.930;2023-08-17T10:17:39;2.47;;;2.28;;
10335;SDS011;5213;53.548;9.930;2023-08-17T10:20:14;2.50;;;2.30;;
10335;SDS011;5213;53.548;9.930;2023-08-17T10:23:00;2.50;;;2.40;;
10335;SDS011;5213;53.548;9.930;2023-08-17T10:25:33;2.33;;;2.13;;
10335;SDS011;5213;53.548;9.930;2023-08-17T10:28:00;2.50;;;2.08;;
10335;SDS011;5213;53.548;9.930;2023-08-17T10:30:28;1.98;;;1.88;;
10335;SDS011;5213;53.548;9.930;2023-08-17T10:32:54;3.28;;;2.30;;
10335;SDS011;5213;53.548;9.930;2023-08-17T10:35:20;1.90;;;1.80;;
10335;SDS011;5213;53.548;9.930;2023-08-17T10:37:46;2.55;;;2.10;;
10335;SDS011;5213;53.548;9.930;2023-08-17T10:40:13;2.60;;;2.10;;
10335;SDS011;5213;53.548;9.930;2023-08-17T10:42:38;2.75;;;2.20;;
10335;SDS011;5213;53.548;9.930;2023-08-17T10:50:33;2.80;;;2.40;;
10335;SDS011;5213;53.548;9.930;2023-08-17T10:53:04;3.42;;;2.05;;
10335;SDS011;5213;53.548;9.930;2023-08-17T10:55:37;2.20;;;2.10;;
10335;SDS011;5213;53.548;9.930;2023-08-17T10:58:07;2.30;;;1.98;;
10335;SDS011;5213;53.548;9.930;2023-08-17T11:00:33;2.75;;;2.03;;
10335;SDS011;5213;53.548;9.930;2023-08-17T11:03:05;2.00;;;1.90;;
10335;SDS011;5213;53.548;9.930;2023-08-17T11:05:45;3.17;;;1.90;;
10335;SDS011;5213;53.548;9.930;2023-08-17T11:11:15;2.10;;;1.88;;
10335;SDS011;5213;53.548;9.930;2023-08-17T11:13:41;2.83;;;2.10;;
10335;SDS011;5213;53.548;9.930;2023-08-17T11:16:09;2.45;;;2.22;;
10335;SDS011;5213;53.548;9.930;2023-08-17T11:18:36;2.22;;;2.10;;
10335;SDS011;5213;53.548;9.930;2023-08-17T11:21:03;3.45;;;2.33;;
10335;SDS011;5213;53.548;9.930;2023-08-17T11:23:30;3.83;;;2.30;;
10335;SDS011;5213;53.548;9.930;2023-08-17T11:25:56;2.75;;;2.20;;
10335;SDS011;5213;53.548;9.930;2023-08-17T11:28:22;2.53;;;2.33;;
10335;SDS011;5213;53.548;9.930;2023-08-17T11:30:58;3.60;;;2.50;;
10335;SDS011;5213;53.548;9.930;2023-08-17T11:33:27;3.95;;;2.53;;
10335;SDS011;5213;53.548;9.930;2023-08-17T11:35:54;3.10;;;2.78;;
10335;SDS011;5213;53.548;9.930;2023-08-17T11:38:20;3.25;;;2.42;;
10335;SDS011;5213;53.548;9.930;2023-08-17T11:40:46;5.05;;;2.67;;
10335;SDS011;5213;53.548;9.930;2023-08-17T11:43:12;2.25;;;2.15;;
10335;SDS011;5213;53.548;9.930;2023-08-17T11:45:39;2.85;;;2.38;;
10335;SDS011;5213;53.548;9.930;2023-08-17T11:48:05;3.85;;;2.55;;
10335;SDS011;5213;53.548;9.930;2023-08-17T11:50:30;2.72;;;2.35;;
10335;SDS011;5213;53.548;9.930;2023-08-17T11:52:59;2.90;;;2.70;;
10335;SDS011;5213;53.548;9.930;2023-08-17T11:55:25;3.20;;;2.50;;
10335;SDS011;5213;53.548;9.930;2023-08-17T11:57:51;3.17;;;2.97;;
10335;SDS011;5213;53.548;9.930;2023-08-17T12:00:21;4.65;;;3.33;;
10335;SDS011;5213;53.548;9.930;2023-08-17T12:02:47;4.18;;;3.40;;
10335;SDS011;5213;53.548;9.930;2023-08-17T12:05:23;4.25;;;3.80;;
10335;SDS011;5213;53.548;9.930;2023-08-17T12:07:50;5.18;;;3.95;;
10335;SDS011;5213;53.548;9.930;2023-08-17T12:10:17;5.07;;;4.20;;
10335;SDS011;5213;53.548;9.930;2023-08-17T12:12:44;5.38;;;4.40;;
10335;SDS011;5213;53.548;9.930;2023-08-17T12:15:12;6.90;;;5.00;;
10335;SDS011;5213;53.548;9.930;2023-08-17T12:17:48;5.82;;;4.78;;
10335;SDS011;5213;53.548;9.930;2023-08-17T12:20:18;7.15;;;4.40;;
10335;SDS011;5213;53.548;9.930;2023-08-17T12:22:45;4.85;;;4.45;;
10335;SDS011;5213;53.548;9.930;2023-08-17T12:25:11;4.55;;;4.15;;
10335;SDS011;5213;53.548;9.930;2023-08-17T12:27:37;7.50;;;4.70;;
10335;SDS011;5213;53.548;9.930;2023-08-17T12:30:04;4.80;;;4.50;;
10335;SDS011;5213;53.548;9.930;2023-08-17T12:32:36;5.45;;;4.95;;
10335;SDS011;5213;53.548;9.930;2023-08-17T12:35:02;6.18;;;4.40;;
10335;SDS011;5213;53.548;9.930;2023-08-17T12:37:28;5.13;;;4.30;;
10335;SDS011;5213;53.548;9.930;2023-08-17T12:39:54;5.93;;;4.10;;
10335;SDS011;5213;53.548;9.930;2023-08-17T12:42:20;5.65;;;4.40;;
10335;SDS011;5213;53.548;9.930;2023-08-17T12:44:45;6.72;;;4.47;;
10335;SDS011;5213;53.548;9.930;2023-08-17T12:47:11;4.00;;;3.33;;
10335;SDS011;5213;53.548;9.930;2023-08-17T12:49:36;4.70;;;3.20;;
10335;SDS011;5213;53.548;9.930;2023-08-17T12:52:02;4.32;;;3.92;;
10335;SDS011;5213;53.548;9.930;2023-08-17T12:54:28;3.65;;;3.42;;
10335;SDS011;5213;53.548;9.930;2023-08-17T12:56:53;2.80;;;2.60;;
10335;SDS011;5213;53.548;9.930;2023-08-17T12:59:19;2.78;;;2.58;;
10335;SDS011;5213;53.548;9.930;2023-08-17T13:01:45;4.97;;;2.75;;
10335;SDS011;5213;53.548;9.930;2023-08-17T13:04:10;3.83;;;3.00;;
10335;SDS011;5213;53.548;9.930;2023-08-17T13:06:36;3.50;;;3.08;;
10335;SDS011;5213;53.548;9.930;2023-08-17T13:09:02;4.65;;;3.03;;
10335;SDS011;5213;53.548;9.930;2023-08-17T13:11:28;3.53;;;3.17;;
10335;SDS011;5213;53.548;9.930;2023-08-17T13:13:54;3.65;;;3.03;;
10335;SDS011;5213;53.548;9.930;2023-08-17T13:16:19;2.97;;;2.70;;
10335;SDS011;5213;53.548;9.930;2023-08-17T13:18:47;5.15;;;2.97;;
10335;SDS011;5213;53.548;9.930;2023-08-17T13:21:13;2.53;;;2.30;;
10335;SDS011;5213;53.548;9.930;2023-08-17T13:23:40;2.60;;;2.40;;
10335;SDS011;5213;53.548;9.930;2023-08-17T13:26:06;1.70;;;1.70;;
10335;SDS011;5213;53.548;9.930;2023-08-17T13:28:32;1.98;;;1.88;;
10335;SDS011;5213;53.548;9.930;2023-08-17T13:30:57;3.22;;;2.03;;
10335;SDS011;5213;53.548;9.930;2023-08-17T13:33:23;1.25;;;1.23;;
10335;SDS011;5213;53.548;9.930;2023-08-17T13:35:49;2.38;;;1.48;;
10335;SDS011;5213;53.548;9.930;2023-08-17T13:38:23;3.30;;;1.92;;
10335;SDS011;5213;53.548;9.930;2023-08-17T13:40:50;1.60;;;1.50;;
10335;SDS011;5213;53.548;9.930;2023-08-17T13:43:15;1.50;;;1.40;;
10335;SDS011;5213;53.548;9.930;2023-08-17T13:45:41;1.60;;;1.50;;
10335;SDS011;5213;53.548;9.930;2023-08-17T13:48:07;1.63;;;1.52;;
10335;SDS011;5213;53.548;9.930;2023-08-17T13:50:33;1.60;;;1.50;;
10335;SDS011;5213;53.548;9.930;2023-08-17T13:53:02;1.50;;;1.50;;
10335;SDS011;5213;53.548;9.930;2023-08-17T13:55:27;1.73;;;1.63;;
10335;SDS011;5213;53.548;9.930;2023-08-17T13:57:54;1.60;;;1.50;;
10335;SDS011;5213;53.548;9.930;2023-08-17T14:00:21;2.22;;;1.65;;
10335;SDS011;5213;53.548;9.930;2023-08-17T14:02:47;2.47;;;1.58;;
10335;SDS011;5213;53.548;9.930;2023-08-17T14:05:13;1.70;;;1.60;;
10335;SDS011;5213;53.548;9.930;2023-08-17T14:07:38;1.70;;;1.60;;
10335;SDS011;5213;53.548;9.930;2023-08-17T14:10:04;1.90;;;1.80;;
10335;SDS011;5213;53.548;9.930;2023-08-17T14:12:30;2.40;;;2.20;;
10335;SDS011;5213;53.548;9.930;2023-08-17T14:14:56;2.05;;;1.85;;
10335;SDS011;5213;53.548;9.930;2023-08-17T14:17:21;1.95;;;1.75;;
10335;SDS011;5213;53.548;9.930;2023-08-17T14:19:47;1.60;;;1.50;;
10335;SDS011;5213;53.548;9.930;2023-08-17T14:22:13;1.92;;;1.75;;
10335;SDS011;5213;53.548;9.930;2023-08-17T14:24:38;2.13;;;1.55;;
10335;SDS011;5213;53.548;9.930;2023-08-17T14:27:04;1.90;;;1.80;;
10335;SDS011;5213;53.548;9.930;2023-08-17T14:29:30;2.47;;;1.83;;
10335;SDS011;5213;53.548;9.930;2023-08-17T14:31:55;1.95;;;1.85;;
10335;SDS011;5213;53.548;9.930;2023-08-17T14:34:21;2.28;;;2.00;;
10335;SDS011;5213;53.548;9.930;2023-08-17T14:36:46;2.22;;;1.90;;
10335;SDS011;5213;53.548;9.930;2023-08-17T14:39:12;1.98;;;1.80;;
10335;SDS011;5213;53.548;9.930;2023-08-17T14:41:38;2.95;;;1.73;;
10335;SDS011;5213;53.548;9.930;2023-08-17T14:44:03;3.65;;;2.05;;
10335;SDS011;5213;53.548;9.930;2023-08-17T14:46:29;1.73;;;1.63;;
10335;SDS011;5213;53.548;9.930;2023-08-17T14:48:55;1.77;;;1.67;;
10335;SDS011;5213;53.548;9.930;2023-08-17T14:51:21;2.55;;;1.98;;
10335;SDS011;5213;53.548;9.930;2023-08-17T14:53:47;2.95;;;2.58;;
10335;SDS011;5213;53.548;9.930;2023-08-17T14:56:13;4.85;;;3.47;;
10335;SDS011;5213;53.548;9.930;2023-08-17T14:58:38;4.15;;;3.72;;
10335;SDS011;5213;53.548;9.930;2023-08-17T15:01:04;2.72;;;2.53;;
10335;SDS011;5213;53.548;9.930;2023-08-17T15:03:30;2.17;;;2.08;;
10335;SDS011;5213;53.548;9.930;2023-08-17T15:05:55;2.58;;;2.13;;
10335;SDS011;5213;53.548;9.930;2023-08-17T15:08:21;2.28;;;2.17;;
10335;SDS011;5213;53.548;9.930;2023-08-17T15:10:47;2.13;;;1.92;;